sensor_id;sensor_type;location;lat;lon;timestamp;temperature;humidity
67163;DHT22;54092;53.088;8.850;2023-06-24T00:01:12;16.60;99.90
67163;DHT22;54092;53.088;8.850;2023-06-24T00:03:39;16.60;99.90
67163;DHT22;54092;53.088;8.850;2023-06-24T00:06:04;16.50;99.90
67163;DHT22;54092;53.088;8.850;2023-06-24T00:08:30;16.50;99.90
67163;DHT22;54092;53.088;8.850;2023-06-24T00:11:02;16.40;99.90
67163;DHT22;54092;53.088;8.850;2023-06-24T00:13:28;16.30;99.90
67163;DHT22;54092;53.088;8.850;2023-06-24T00:15:55;16.30;99.90
67163;DHT22;54092;53.088;8.850;2023-06-24T00:18:20;16.30;99.90
67163;DHT22;54092;53.088;8.850;2023-06-24T00:20:50;16.20;99.90
67163;DHT22;54092;53.088;8.850;2023-06-24T00:23:17;16.20;99.90
67163;DHT22;54092;53.088;8.850;2023-06-24T00:25:53;16.10;99.90
67163;DHT22;54092;53.088;8.850;2023-06-24T00:28:20;16.10;99.90
67163;DHT22;54092;53.088;8.850;2023-06-24T00:30:47;16.20;99.90
67163;DHT22;54092;53.088;8.850;2023-06-24T00:33:12;16.20;99.90
67163;DHT22;54092;53.088;8.850;2023-06-24T00:35:42;16.20;99.90
67163;DHT22;54092;53.088;8.850;2023-06-24T00:38:08;16.10;99.90
67163;DHT22;54092;53.088;8.850;2023-06-24T00:40:33;16.10;99.90
67163;DHT22;54092;53.088;8.850;2023-06-24T00:43:00;16.10;99.90
67163;DHT22;54092;53.088;8.850;2023-06-24T00:45:27;16.10;99.90
67163;DHT22;54092;53.088;8.850;2023-06-24T00:47:53;16.00;99.90
67163;DHT22;54092;53.088;8.850;2023-06-24T00:50:20;16.00;99.90
67163;DHT22;54092;53.088;8.850;2023-06-24T00:52:45;15.90;99.90
67163;DHT22;54092;53.088;8.850;2023-06-24T00:55:12;15.90;99.90
67163;DHT22;54092;53.088;8.850;2023-06-24T00:57:43;15.80;99.90
67163;DHT22;54092;53.088;8.850;2023-06-24T01:00:10;15.80;99.90
67163;DHT22;54092;53.088;8.850;2023-06-24T01:02:40;15.80;99.90
67163;DHT22;54092;53.088;8.850;2023-06-24T01:05:08;15.70;99.90
67163;DHT22;54092;53.088;8.850;2023-06-24T01:07:35;15.70;99.90
67163;DHT22;54092;53.088;8.850;2023-06-24T01:10:03;15.70;99.90
67163;DHT22;54092;53.088;8.850;2023-06-24T01:12:36;15.70;99.90
67163;DHT22;54092;53.088;8.850;2023-06-24T01:15:04;15.60;99.90
67163;DHT22;54092;53.088;8.850;2023-06-24T01:17:37;15.60;99.90
67163;DHT22;54092;53.088;8.850;2023-06-24T01:20:10;15.60;99.90
67163;DHT22;54092;53.088;8.850;2023-06-24T01:33:55;15.40;99.90
67163;DHT22;54092;53.088;8.850;2023-06-24T01:36:24;15.40;99.90
67163;DHT22;54092;53.088;8.850;2023-06-24T01:38:58;15.40;99.90
67163;DHT22;54092;53.088;8.850;2023-06-24T01:41:32;15.40;99.90
67163;DHT22;54092;53.088;8.850;2023-06-24T01:43:59;15.30;99.90
67163;DHT22;54092;53.088;8.850;2023-06-24T01:46:25;15.30;99.90
67163;DHT22;54092;53.088;8.850;2023-06-24T01:48:55;15.30;99.90
67163;DHT22;54092;53.088;8.850;2023-06-24T01:51:24;15.30;99.90
67163;DHT22;54092;53.088;8.850;2023-06-24T01:53:57;15.30;99.90
67163;DHT22;54092;53.088;8.850;2023-06-24T01:56:26;15.30;99.90
67163;DHT22;54092;53.088;8.850;2023-06-24T01:58:53;15.20;99.90
67163;DHT22;54092;53.088;8.850;2023-06-24T02:01:20;15.20;99.90
67163;DHT22;54092;53.088;8.850;2023-06-24T02:03:47;15.20;99.90
67163;DHT22;54092;53.088;8.850;2023-06-24T02:06:14;15.30;99.90
67163;DHT22;54092;53.088;8.850;2023-06-24T02:08:41;15.20;99.90
67163;DHT22;54092;53.088;8.850;2023-06-24T02:11:08;15.20;99.90
67163;DHT22;54092;53.088;8.850;2023-06-24T02:13:36;15.20;99.90
67163;DHT22;54092;53.088;8.850;2023-06-24T02:16:08;15.20;99.90
67163;DHT22;54092;53.088;8.850;2023-06-24T02:18:35;15.20;99.90
67163;DHT22;54092;53.088;8.850;2023-06-24T02:21:03;15.20;99.90
67163;DHT22;54092;53.088;8.850;2023-06-24T02:23:30;15.20;99.90
67163;DHT22;54092;53.088;8.850;2023-06-24T02:25:57;15.30;99.90
67163;DHT22;54092;53.088;8.850;2023-06-24T02:28:23;15.30;99.90
67163;DHT22;54092;53.088;8.850;2023-06-24T02:30:49;15.20;99.90
67163;DHT22;54092;53.088;8.850;2023-06-24T02:33:15;15.20;99.90
67163;DHT22;54092;53.088;8.850;2023-06-24T02:35:41;15.20;99.90
67163;DHT22;54092;53.088;8.850;2023-06-24T02:38:07;15.20;99.90
67163;DHT22;54092;53.088;8.850;2023-06-24T02:40:33;15.20;99.90
67163;DHT22;54092;53.088;8.850;2023-06-24T02:42:59;15.20;99.90
67163;DHT22;54092;53.088;8.850;2023-06-24T02:45:25;15.20;99.90
67163;DHT22;54092;53.088;8.850;2023-06-24T02:47:52;15.10;99.90
67163;DHT22;54092;53.088;8.850;2023-06-24T02:50:19;15.10;99.90
67163;DHT22;54092;53.088;8.850;2023-06-24T02:52:45;15.10;99.90
67163;DHT22;54092;53.088;8.850;2023-06-24T02:55:11;15.10;99.90
67163;DHT22;54092;53.088;8.850;2023-06-24T02:57:37;15.10;99.90
67163;DHT22;54092;53.088;8.850;2023-06-24T03:00:05;15.10;99.90
67163;DHT22;54092;53.088;8.850;2023-06-24T03:02:33;15.00;99.90
67163;DHT22;54092;53.088;8.850;2023-06-24T03:04:59;15.00;99.90
67163;DHT22;54092;53.088;8.850;2023-06-24T03:07:27;15.00;99.90
67163;DHT22;54092;53.088;8.850;2023-06-24T03:09:53;15.00;99.90
67163;DHT22;54092;53.088;8.850;2023-06-24T03:12:18;15.00;99.90
67163;DHT22;54092;53.088;8.850;2023-06-24T03:14:44;15.00;99.90
67163;DHT22;54092;53.088;8.850;2023-06-24T03:17:10;15.00;99.90
67163;DHT22;54092;53.088;8.850;2023-06-24T03:19:36;15.10;99.90
67163;DHT22;54092;53.088;8.850;2023-06-24T03:22:03;15.10;99.90
67163;DHT22;54092;53.088;8.850;2023-06-24T03:24:29;15.10;99.90
67163;DHT22;54092;53.088;8.850;2023-06-24T03:26:55;15.10;99.90
67163;DHT22;54092;53.088;8.850;2023-06-24T03:29:23;15.00;99.90
67163;DHT22;54092;53.088;8.850;2023-06-24T03:31:49;15.10;99.90
67163;DHT22;54092;53.088;8.850;2023-06-24T03:34:15;15.10;99.90
67163;DHT22;54092;53.088;8.850;2023-06-24T03:36:42;15.10;99.90
67163;DHT22;54092;53.088;8.850;2023-06-24T03:39:08;15.10;99.90
67163;DHT22;54092;53.088;8.850;2023-06-24T03:41:33;15.10;99.90
67163;DHT22;54092;53.088;8.850;2023-06-24T03:43:59;15.10;99.90
67163;DHT22;54092;53.088;8.850;2023-06-24T03:46:24;15.10;99.90
67163;DHT22;54092;53.088;8.850;2023-06-24T03:48:51;15.20;99.90
67163;DHT22;54092;53.088;8.850;2023-06-24T03:51:16;15.20;99.90
67163;DHT22;54092;53.088;8.850;2023-06-24T03:53:42;15.20;99.90
67163;DHT22;54092;53.088;8.850;2023-06-24T03:56:07;15.30;99.90
67163;DHT22;54092;53.088;8.850;2023-06-24T03:58:33;15.30;99.90
67163;DHT22;54092;53.088;8.850;2023-06-24T04:01:02;15.40;99.90
67163;DHT22;54092;53.088;8.850;2023-06-24T04:03:28;15.40;99.90
67163;DHT22;54092;53.088;8.850;2023-06-24T04:05:57;15.40;99.90
67163;DHT22;54092;53.088;8.850;2023-06-24T04:08:23;15.40;99.90
67163;DHT22;54092;53.088;8.850;2023-06-24T04:10:54;15.40;99.90
67163;DHT22;54092;53.088;8.850;2023-06-24T04:13:20;15.50;99.90
67163;DHT22;54092;53.088;8.850;2023-06-24T04:15:46;15.50;99.90
67163;DHT22;54092;53.088;8.850;2023-06-24T04:18:11;15.50;99.90
67163;DHT22;54092;53.088;8.850;2023-06-24T04:20:37;15.50;99.90
67163;DHT22;54092;53.088;8.850;2023-06-24T04:23:03;15.50;99.90
67163;DHT22;54092;53.088;8.850;2023-06-24T04:25:29;15.60;99.90
67163;DHT22;54092;53.088;8.850;2023-06-24T04:27:55;15.60;99.90
67163;DHT22;54092;53.088;8.850;2023-06-24T04:30:20;15.70;99.90
67163;DHT22;54092;53.088;8.850;2023-06-24T04:32:46;15.70;99.90
67163;DHT22;54092;53.088;8.850;2023-06-24T04:35:11;15.70;99.90
67163;DHT22;54092;53.088;8.850;2023-06-24T04:37:37;15.80;99.90
67163;DHT22;54092;53.088;8.850;2023-06-24T04:40:03;15.90;99.90
67163;DHT22;54092;53.088;8.850;2023-06-24T04:42:28;16.00;99.90
67163;DHT22;54092;53.088;8.850;2023-06-24T04:44:54;16.00;99.90
67163;DHT22;54092;53.088;8.850;2023-06-24T04:47:19;16.10;99.90
67163;DHT22;54092;53.088;8.850;2023-06-24T04:49:45;16.10;99.90
67163;DHT22;54092;53.088;8.850;2023-06-24T04:52:11;16.20;99.90
67163;DHT22;54092;53.088;8.850;2023-06-24T04:54:37;16.30;99.90
67163;DHT22;54092;53.088;8.850;2023-06-24T04:57:07;16.30;99.90
67163;DHT22;54092;53.088;8.850;2023-06-24T04:59:33;16.40;99.90
67163;DHT22;54092;53.088;8.850;2023-06-24T05:01:59;16.60;99.90
67163;DHT22;54092;53.088;8.850;2023-06-24T05:04:24;16.70;99.90
67163;DHT22;54092;53.088;8.850;2023-06-24T05:06:50;16.70;99.90
67163;DHT22;54092;53.088;8.850;2023-06-24T05:09:15;16.70;99.90
67163;DHT22;54092;53.088;8.850;2023-06-24T05:11:41;16.70;99.90
67163;DHT22;54092;53.088;8.850;2023-06-24T05:14:06;16.80;99.90
67163;DHT22;54092;53.088;8.850;2023-06-24T05:16:32;17.00;99.90
67163;DHT22;54092;53.088;8.850;2023-06-24T05:18:57;17.10;99.90
67163;DHT22;54092;53.088;8.850;2023-06-24T05:21:23;17.10;99.90
67163;DHT22;54092;53.088;8.850;2023-06-24T05:23:48;17.10;99.90
67163;DHT22;54092;53.088;8.850;2023-06-24T05:26:14;17.20;99.90
67163;DHT22;54092;53.088;8.850;2023-06-24T05:28:40;17.20;99.90
67163;DHT22;54092;53.088;8.850;2023-06-24T05:31:05;17.40;99.90
67163;DHT22;54092;53.088;8.850;2023-06-24T05:33:31;17.50;99.90
67163;DHT22;54092;53.088;8.850;2023-06-24T05:35:56;17.60;99.90
67163;DHT22;54092;53.088;8.850;2023-06-24T05:38:22;17.60;99.90
67163;DHT22;54092;53.088;8.850;2023-06-24T05:40:47;17.60;99.90
67163;DHT22;54092;53.088;8.850;2023-06-24T05:43:13;17.60;99.90
67163;DHT22;54092;53.088;8.850;2023-06-24T05:45:38;17.50;99.90
67163;DHT22;54092;53.088;8.850;2023-06-24T05:48:04;17.60;99.90
67163;DHT22;54092;53.088;8.850;2023-06-24T05:50:29;17.70;99.90
67163;DHT22;54092;53.088;8.850;2023-06-24T05:52:55;17.70;99.90
67163;DHT22;54092;53.088;8.850;2023-06-24T05:55:20;17.80;99.90
67163;DHT22;54092;53.088;8.850;2023-06-24T05:57:46;17.90;99.90
67163;DHT22;54092;53.088;8.850;2023-06-24T06:00:12;18.10;99.90
67163;DHT22;54092;53.088;8.850;2023-06-24T06:02:37;18.20;99.90
67163;DHT22;54092;53.088;8.850;2023-06-24T06:05:03;18.20;99.90
67163;DHT22;54092;53.088;8.850;2023-06-24T06:07:29;18.20;99.90
67163;DHT22;54092;53.088;8.850;2023-06-24T06:09:54;18.20;99.90
67163;DHT22;54092;53.088;8.850;2023-06-24T06:12:21;18.30;99.90
67163;DHT22;54092;53.088;8.850;2023-06-24T06:14:46;18.30;99.90
67163;DHT22;54092;53.088;8.850;2023-06-24T06:17:13;18.40;99.90
67163;DHT22;54092;53.088;8.850;2023-06-24T06:19:39;18.50;99.90
67163;DHT22;54092;53.088;8.850;2023-06-24T06:22:07;18.60;99.90
67163;DHT22;54092;53.088;8.850;2023-06-24T06:24:33;18.60;99.90
67163;DHT22;54092;53.088;8.850;2023-06-24T06:26:58;18.60;99.90
67163;DHT22;54092;53.088;8.850;2023-06-24T06:29:24;18.60;99.90
67163;DHT22;54092;53.088;8.850;2023-06-24T06:31:50;18.70;99.90
67163;DHT22;54092;53.088;8.850;2023-06-24T06:34:15;18.80;99.90
67163;DHT22;54092;53.088;8.850;2023-06-24T06:36:41;18.90;99.90
67163;DHT22;54092;53.088;8.850;2023-06-24T06:39:06;18.90;99.90
67163;DHT22;54092;53.088;8.850;2023-06-24T06:41:31;19.00;99.90
67163;DHT22;54092;53.088;8.850;2023-06-24T06:43:57;19.10;99.90
67163;DHT22;54092;53.088;8.850;2023-06-24T06:46:22;19.30;99.90
67163;DHT22;54092;53.088;8.850;2023-06-24T06:48:48;19.40;99.90
67163;DHT22;54092;53.088;8.850;2023-06-24T06:51:14;19.30;99.90
67163;DHT22;54092;53.088;8.850;2023-06-24T06:53:39;19.30;99.90
67163;DHT22;54092;53.088;8.850;2023-06-24T06:56:05;19.40;99.90
67163;DHT22;54092;53.088;8.850;2023-06-24T06:58:30;19.40;99.90
67163;DHT22;54092;53.088;8.850;2023-06-24T07:00:56;19.40;99.90
67163;DHT22;54092;53.088;8.850;2023-06-24T07:03:26;19.50;99.90
67163;DHT22;54092;53.088;8.850;2023-06-24T07:05:53;19.60;99.90
67163;DHT22;54092;53.088;8.850;2023-06-24T07:08:18;19.60;99.90
67163;DHT22;54092;53.088;8.850;2023-06-24T07:10:44;19.90;99.90
67163;DHT22;54092;53.088;8.850;2023-06-24T07:13:10;20.00;99.90
67163;DHT22;54092;53.088;8.850;2023-06-24T07:15:35;20.20;99.90
67163;DHT22;54092;53.088;8.850;2023-06-24T07:18:01;20.10;99.90
67163;DHT22;54092;53.088;8.850;2023-06-24T07:20:26;20.10;99.90
67163;DHT22;54092;53.088;8.850;2023-06-24T07:22:52;20.20;99.90
67163;DHT22;54092;53.088;8.850;2023-06-24T07:25:17;20.30;99.90
67163;DHT22;54092;53.088;8.850;2023-06-24T07:27:43;20.40;99.90
67163;DHT22;54092;53.088;8.850;2023-06-24T07:30:09;20.50;99.90
67163;DHT22;54092;53.088;8.850;2023-06-24T07:32:34;20.60;99.90
67163;DHT22;54092;53.088;8.850;2023-06-24T07:35:00;20.60;99.90
67163;DHT22;54092;53.088;8.850;2023-06-24T07:37:25;20.60;99.90
67163;DHT22;54092;53.088;8.850;2023-06-24T07:39:51;20.70;99.90
67163;DHT22;54092;53.088;8.850;2023-06-24T07:42:16;20.70;99.90
67163;DHT22;54092;53.088;8.850;2023-06-24T07:44:47;20.70;99.90
67163;DHT22;54092;53.088;8.850;2023-06-24T07:47:13;21.00;99.90
67163;DHT22;54092;53.088;8.850;2023-06-24T07:49:38;21.20;99.90
67163;DHT22;54092;53.088;8.850;2023-06-24T07:52:04;21.20;99.90
67163;DHT22;54092;53.088;8.850;2023-06-24T07:54:30;21.30;99.90
67163;DHT22;54092;53.088;8.850;2023-06-24T07:56:56;21.20;99.90
67163;DHT22;54092;53.088;8.850;2023-06-24T07:59:21;21.30;99.90
67163;DHT22;54092;53.088;8.850;2023-06-24T08:01:47;21.40;99.90
67163;DHT22;54092;53.088;8.850;2023-06-24T08:04:13;21.60;99.90
67163;DHT22;54092;53.088;8.850;2023-06-24T08:06:38;21.60;99.90
67163;DHT22;54092;53.088;8.850;2023-06-24T08:09:04;21.80;99.90
67163;DHT22;54092;53.088;8.850;2023-06-24T08:11:29;21.80;99.90
67163;DHT22;54092;53.088;8.850;2023-06-24T08:13:55;22.00;99.90
67163;DHT22;54092;53.088;8.850;2023-06-24T08:16:20;22.00;99.90
67163;DHT22;54092;53.088;8.850;2023-06-24T08:18:46;22.10;99.90
67163;DHT22;54092;53.088;8.850;2023-06-24T08:21:12;22.20;99.90
67163;DHT22;54092;53.088;8.850;2023-06-24T08:23:37;22.20;99.90
67163;DHT22;54092;53.088;8.850;2023-06-24T08:26:03;22.50;99.90
67163;DHT22;54092;53.088;8.850;2023-06-24T08:28:28;22.50;99.90
67163;DHT22;54092;53.088;8.850;2023-06-24T08:30:54;22.60;99.90
67163;DHT22;54092;53.088;8.850;2023-06-24T08:33:19;22.80;99.90
67163;DHT22;54092;53.088;8.850;2023-06-24T08:35:45;22.90;99.90
67163;DHT22;54092;53.088;8.850;2023-06-24T08:38:10;23.20;99.90
67163;DHT22;54092;53.088;8.850;2023-06-24T08:40:36;23.40;99.90
67163;DHT22;54092;53.088;8.850;2023-06-24T08:43:05;23.70;99.90
67163;DHT22;54092;53.088;8.850;2023-06-24T08:45:31;23.70;99.90
67163;DHT22;54092;53.088;8.850;2023-06-24T08:47:57;23.80;99.90
67163;DHT22;54092;53.088;8.850;2023-06-24T08:50:27;24.00;99.90
67163;DHT22;54092;53.088;8.850;2023-06-24T08:52:54;24.10;99.90
67163;DHT22;54092;53.088;8.850;2023-06-24T08:55:23;24.20;99.90
67163;DHT22;54092;53.088;8.850;2023-06-24T08:57:48;24.20;99.90
67163;DHT22;54092;53.088;8.850;2023-06-24T09:00:15;23.90;99.90
67163;DHT22;54092;53.088;8.850;2023-06-24T09:02:41;24.00;99.90
67163;DHT22;54092;53.088;8.850;2023-06-24T09:05:07;24.50;99.90
67163;DHT22;54092;53.088;8.850;2023-06-24T09:07:33;24.60;99.90
67163;DHT22;54092;53.088;8.850;2023-06-24T09:09:59;24.60;99.90
67163;DHT22;54092;53.088;8.850;2023-06-24T09:12:31;24.60;99.90
67163;DHT22;54092;53.088;8.850;2023-06-24T09:14:57;25.00;99.90
67163;DHT22;54092;53.088;8.850;2023-06-24T09:17:22;25.40;99.90
67163;DHT22;54092;53.088;8.850;2023-06-24T09:19:49;25.50;99.90
67163;DHT22;54092;53.088;8.850;2023-06-24T09:22:14;25.70;99.90
67163;DHT22;54092;53.088;8.850;2023-06-24T09:24:45;26.10;99.90
67163;DHT22;54092;53.088;8.850;2023-06-24T09:27:14;26.20;99.90
67163;DHT22;54092;53.088;8.850;2023-06-24T09:29:41;26.80;99.90
67163;DHT22;54092;53.088;8.850;2023-06-24T09:32:08;27.20;99.90
67163;DHT22;54092;53.088;8.850;2023-06-24T09:34:35;27.70;99.90
67163;DHT22;54092;53.088;8.850;2023-06-24T09:37:01;27.90;99.90
67163;DHT22;54092;53.088;8.850;2023-06-24T09:39:27;28.70;99.90
67163;DHT22;54092;53.088;8.850;2023-06-24T09:42:02;28.80;99.90
67163;DHT22;54092;53.088;8.850;2023-06-24T09:44:28;29.10;99.90
67163;DHT22;54092;53.088;8.850;2023-06-24T09:46:55;29.30;99.90
67163;DHT22;54092;53.088;8.850;2023-06-24T09:49:21;29.60;99.90
67163;DHT22;54092;53.088;8.850;2023-06-24T09:51:48;29.60;99.90
67163;DHT22;54092;53.088;8.850;2023-06-24T09:54:15;29.60;99.90
67163;DHT22;54092;53.088;8.850;2023-06-24T09:56:47;29.80;99.90
67163;DHT22;54092;53.088;8.850;2023-06-24T09:59:13;30.00;99.90
67163;DHT22;54092;53.088;8.850;2023-06-24T10:01:41;30.30;99.90
67163;DHT22;54092;53.088;8.850;2023-06-24T10:04:09;29.90;99.90
67163;DHT22;54092;53.088;8.850;2023-06-24T10:06:35;30.10;99.90
67163;DHT22;54092;53.088;8.850;2023-06-24T10:09:01;30.50;99.90
67163;DHT22;54092;53.088;8.850;2023-06-24T10:11:27;30.10;99.90
67163;DHT22;54092;53.088;8.850;2023-06-24T10:13:53;29.90;99.90
67163;DHT22;54092;53.088;8.850;2023-06-24T10:16:19;30.00;99.90
67163;DHT22;54092;53.088;8.850;2023-06-24T10:18:46;30.20;99.90
67163;DHT22;54092;53.088;8.850;2023-06-24T10:21:12;30.40;99.90
67163;DHT22;54092;53.088;8.850;2023-06-24T10:26:29;30.50;99.90
67163;DHT22;54092;53.088;8.850;2023-06-24T10:34:31;31.30;99.90
67163;DHT22;54092;53.088;8.850;2023-06-24T10:37:01;31.40;99.90
67163;DHT22;54092;53.088;8.850;2023-06-24T10:39:50;31.70;99.90
67163;DHT22;54092;53.088;8.850;2023-06-24T10:45:12;32.30;99.90
67163;DHT22;54092;53.088;8.850;2023-06-24T10:47:39;31.80;99.90
67163;DHT22;54092;53.088;8.850;2023-06-24T10:50:06;31.90;99.90
67163;DHT22;54092;53.088;8.850;2023-06-24T10:52:38;32.30;99.90
67163;DHT22;54092;53.088;8.850;2023-06-24T10:55:04;32.30;99.90
67163;DHT22;54092;53.088;8.850;2023-06-24T10:57:29;32.20;99.90
67163;DHT22;54092;53.088;8.850;2023-06-24T10:59:56;31.60;99.90
67163;DHT22;54092;53.088;8.850;2023-06-24T11:02:24;31.20;99.90
67163;DHT22;54092;53.088;8.850;2023-06-24T11:04:54;31.40;99.90
67163;DHT22;54092;53.088;8.850;2023-06-24T11:07:24;31.60;99.90
67163;DHT22;54092;53.088;8.850;2023-06-24T11:09:55;32.10;99.90
67163;DHT22;54092;53.088;8.850;2023-06-24T11:12:25;31.70;99.90
67163;DHT22;54092;53.088;8.850;2023-06-24T11:15:00;32.20;99.90
67163;DHT22;54092;53.088;8.850;2023-06-24T11:17:27;31.90;99.90
67163;DHT22;54092;53.088;8.850;2023-06-24T11:19:56;31.00;99.90
67163;DHT22;54092;53.088;8.850;2023-06-24T11:22:23;30.80;99.90
67163;DHT22;54092;53.088;8.850;2023-06-24T11:24:49;30.70;99.90
67163;DHT22;54092;53.088;8.850;2023-06-24T11:27:15;30.40;99.90
67163;DHT22;54092;53.088;8.850;2023-06-24T11:29:40;30.50;99.90
67163;DHT22;54092;53.088;8.850;2023-06-24T11:32:09;30.70;99.90
67163;DHT22;54092;53.088;8.850;2023-06-24T11:34:38;31.00;99.90
67163;DHT22;54092;53.088;8.850;2023-06-24T11:37:17;30.60;99.90
67163;DHT22;54092;53.088;8.850;2023-06-24T11:39:44;29.60;99.90
67163;DHT22;54092;53.088;8.850;2023-06-24T11:42:10;29.30;99.90
67163;DHT22;54092;53.088;8.850;2023-06-24T11:44:41;28.50;99.90
67163;DHT22;54092;53.088;8.850;2023-06-24T11:47:10;28.10;99.90
67163;DHT22;54092;53.088;8.850;2023-06-24T11:49:51;27.80;99.90
67163;DHT22;54092;53.088;8.850;2023-06-24T11:52:18;28.60;99.90
67163;DHT22;54092;53.088;8.850;2023-06-24T11:54:44;29.90;99.90
67163;DHT22;54092;53.088;8.850;2023-06-24T11:57:10;30.60;99.90
67163;DHT22;54092;53.088;8.850;2023-06-24T11:59:35;31.30;99.90
67163;DHT22;54092;53.088;8.850;2023-06-24T12:02:01;32.00;99.90
67163;DHT22;54092;53.088;8.850;2023-06-24T12:04:32;32.20;99.90
67163;DHT22;54092;53.088;8.850;2023-06-24T12:06:58;32.40;99.90
67163;DHT22;54092;53.088;8.850;2023-06-24T12:09:24;32.50;99.90
67163;DHT22;54092;53.088;8.850;2023-06-24T12:11:51;32.10;99.90
67163;DHT22;54092;53.088;8.850;2023-06-24T12:14:17;31.20;99.90
67163;DHT22;54092;53.088;8.850;2023-06-24T12:16:43;29.60;99.90
67163;DHT22;54092;53.088;8.850;2023-06-24T12:19:08;28.50;99.90
67163;DHT22;54092;53.088;8.850;2023-06-24T12:21:35;28.00;99.90
67163;DHT22;54092;53.088;8.850;2023-06-24T12:24:01;27.40;99.90
67163;DHT22;54092;53.088;8.850;2023-06-24T12:26:27;27.00;99.90
67163;DHT22;54092;53.088;8.850;2023-06-24T12:28:55;26.60;99.90
67163;DHT22;54092;53.088;8.850;2023-06-24T12:31:22;26.40;99.90
67163;DHT22;54092;53.088;8.850;2023-06-24T12:33:47;27.30;99.90
67163;DHT22;54092;53.088;8.850;2023-06-24T12:36:13;28.90;99.90
67163;DHT22;54092;53.088;8.850;2023-06-24T12:38:38;30.20;99.90
67163;DHT22;54092;53.088;8.850;2023-06-24T12:41:04;30.40;99.90
67163;DHT22;54092;53.088;8.850;2023-06-24T12:43:29;30.80;99.90
67163;DHT22;54092;53.088;8.850;2023-06-24T12:45:55;30.10;99.90
67163;DHT22;54092;53.088;8.850;2023-06-24T12:48:21;29.30;99.90
67163;DHT22;54092;53.088;8.850;2023-06-24T12:50:46;28.60;99.90
67163;DHT22;54092;53.088;8.850;2023-06-24T12:53:13;28.30;99.90
67163;DHT22;54092;53.088;8.850;2023-06-24T12:55:40;27.90;99.90
67163;DHT22;54092;53.088;8.850;2023-06-24T12:58:07;27.70;99.90
67163;DHT22;54092;53.088;8.850;2023-06-24T13:00:32;27.30;99.90
67163;DHT22;54092;53.088;8.850;2023-06-24T13:02:58;27.10;99.90
67163;DHT22;54092;53.088;8.850;2023-06-24T13:05:23;27.30;99.90
67163;DHT22;54092;53.088;8.850;2023-06-24T13:07:50;27.60;99.90
67163;DHT22;54092;53.088;8.850;2023-06-24T13:10:15;27.60;99.90
67163;DHT22;54092;53.088;8.850;2023-06-24T13:12:41;27.50;99.90
67163;DHT22;54092;53.088;8.850;2023-06-24T13:15:07;27.20;99.90
67163;DHT22;54092;53.088;8.850;2023-06-24T13:17:34;27.00;99.90
67163;DHT22;54092;53.088;8.850;2023-06-24T13:20:00;26.80;99.90
67163;DHT22;54092;53.088;8.850;2023-06-24T13:22:27;26.80;99.90
67163;DHT22;54092;53.088;8.850;2023-06-24T13:24:53;26.90;99.90
67163;DHT22;54092;53.088;8.850;2023-06-24T13:27:18;26.80;99.90
67163;DHT22;54092;53.088;8.850;2023-06-24T13:29:44;26.70;99.90
67163;DHT22;54092;53.088;8.850;2023-06-24T13:32:10;26.60;99.90
67163;DHT22;54092;53.088;8.850;2023-06-24T13:34:36;26.50;99.90
67163;DHT22;54092;53.088;8.850;2023-06-24T13:37:01;26.40;99.90
67163;DHT22;54092;53.088;8.850;2023-06-24T13:39:27;26.50;99.90
67163;DHT22;54092;53.088;8.850;2023-06-24T13:41:53;26.50;99.90
67163;DHT22;54092;53.088;8.850;2023-06-24T13:44:18;26.80;99.90
67163;DHT22;54092;53.088;8.850;2023-06-24T13:46:44;27.10;99.90
67163;DHT22;54092;53.088;8.850;2023-06-24T13:49:10;27.30;99.90
67163;DHT22;54092;53.088;8.850;2023-06-24T13:51:36;27.40;99.90
67163;DHT22;54092;53.088;8.850;2023-06-24T13:54:02;27.30;99.90
67163;DHT22;54092;53.088;8.850;2023-06-24T13:56:27;27.20;99.90
67163;DHT22;54092;53.088;8.850;2023-06-24T13:58:54;27.00;99.90
67163;DHT22;54092;53.088;8.850;2023-06-24T14:01:20;27.00;99.90
67163;DHT22;54092;53.088;8.850;2023-06-24T14:03:47;27.00;99.90
67163;DHT22;54092;53.088;8.850;2023-06-24T14:06:14;27.10;99.90
67163;DHT22;54092;53.088;8.850;2023-06-24T14:08:44;26.90;99.90
67163;DHT22;54092;53.088;8.850;2023-06-24T14:11:10;26.90;99.90
67163;DHT22;54092;53.088;8.850;2023-06-24T14:13:35;26.80;99.90
67163;DHT22;54092;53.088;8.850;2023-06-24T14:16:02;26.80;99.90
67163;DHT22;54092;53.088;8.850;2023-06-24T14:18:28;27.00;99.90
67163;DHT22;54092;53.088;8.850;2023-06-24T14:20:57;27.00;99.90
67163;DHT22;54092;53.088;8.850;2023-06-24T14:23:22;27.20;99.90
67163;DHT22;54092;53.088;8.850;2023-06-24T14:25:48;27.10;99.90
67163;DHT22;54092;53.088;8.850;2023-06-24T14:28:14;27.10;99.90
67163;DHT22;54092;53.088;8.850;2023-06-24T14:30:39;27.10;99.90
67163;DHT22;54092;53.088;8.850;2023-06-24T14:33:06;27.00;99.90
67163;DHT22;54092;53.088;8.850;2023-06-24T14:35:32;26.90;99.90
67163;DHT22;54092;53.088;8.850;2023-06-24T14:37:57;26.90;99.90
67163;DHT22;54092;53.088;8.850;2023-06-24T14:40:23;27.00;99.90
67163;DHT22;54092;53.088;8.850;2023-06-24T14:42:48;26.90;99.90
67163;DHT22;54092;53.088;8.850;2023-06-24T14:45:14;27.00;99.90
67163;DHT22;54092;53.088;8.850;2023-06-24T14:47:40;27.10;99.90
67163;DHT22;54092;53.088;8.850;2023-06-24T14:50:05;27.10;99.90
67163;DHT22;54092;53.088;8.850;2023-06-24T14:52:31;27.20;99.90
67163;DHT22;54092;53.088;8.850;2023-06-24T14:54:57;27.30;99.90
67163;DHT22;54092;53.088;8.850;2023-06-24T14:57:22;27.30;99.90
67163;DHT22;54092;53.088;8.850;2023-06-24T14:59:51;27.40;99.90
67163;DHT22;54092;53.088;8.850;2023-06-24T15:02:17;27.30;99.90
67163;DHT22;54092;53.088;8.850;2023-06-24T15:04:43;27.30;99.90
67163;DHT22;54092;53.088;8.850;2023-06-24T15:07:08;27.30;99.90
67163;DHT22;54092;53.088;8.850;2023-06-24T15:09:34;27.20;99.90
67163;DHT22;54092;53.088;8.850;2023-06-24T15:12:00;27.10;99.90
67163;DHT22;54092;53.088;8.850;2023-06-24T15:14:25;27.00;99.90
67163;DHT22;54092;53.088;8.850;2023-06-24T15:16:51;26.90;99.90
67163;DHT22;54092;53.088;8.850;2023-06-24T15:19:19;26.80;99.90
67163;DHT22;54092;53.088;8.850;2023-06-24T15:21:44;26.70;99.90
67163;DHT22;54092;53.088;8.850;2023-06-24T15:24:10;26.70;99.90
67163;DHT22;54092;53.088;8.850;2023-06-24T15:26:35;26.70;99.90
67163;DHT22;54092;53.088;8.850;2023-06-24T15:29:01;26.70;99.90
67163;DHT22;54092;53.088;8.850;2023-06-24T15:31:26;26.60;99.90
67163;DHT22;54092;53.088;8.850;2023-06-24T15:33:52;26.60;99.90
67163;DHT22;54092;53.088;8.850;2023-06-24T15:36:18;26.60;99.90
67163;DHT22;54092;53.088;8.850;2023-06-24T15:38:46;26.70;99.90
67163;DHT22;54092;53.088;8.850;2023-06-24T15:41:11;26.70;99.90
67163;DHT22;54092;53.088;8.850;2023-06-24T15:43:39;26.70;99.90
67163;DHT22;54092;53.088;8.850;2023-06-24T15:46:05;26.70;99.90
67163;DHT22;54092;53.088;8.850;2023-06-24T15:48:31;26.70;99.90